This is the latest recevied weather packets stored in our database for station/object N5ZP. If no packets are shown the sender has not sent any weather packets the latest 10 day(s).
| Time | Temp. | Humidity | Pressure | Rain* | Wind** | Luminosity | Snow |
|---|---|---|---|---|---|---|---|
| 1777506810 | 16.11° C | 77% | 1011.2 hPa | 0 mm | - | 11 W/m² | - |
| 1777505594 | 16.11° C | 79% | 1011.4 hPa | 0 mm | - | 14 W/m² | - |
| 1777502910 | 16.11° C | 76% | 1011.1 hPa | 0 mm | - | 20 W/m² | - |
| 1777502607 | 16.67° C | 76% | 1010.2 hPa | 0 mm | - | 74 W/m² | - |
| 1777502304 | 16.11° C | 76% | 1009.9 hPa | 0 mm | - | 97 W/m² | - |
| 1777502000 | 16.11° C | 77% | 1010.5 hPa | 0 mm | - | 58 W/m² | - |
| 1777501697 | 16.11° C | 76% | 1010.8 hPa | 0 mm | - | 54 W/m² | - |
| 1777501395 | 16.11° C | 77% | 1011.4 hPa | 0 mm | - | 37 W/m² | - |
| 1777501092 | 16.11° C | 77% | 1011.5 hPa | 0 mm | - | 35 W/m² | - |
| 1777500790 | 16.11° C | 77% | 1011.6 hPa | 0 mm | - | 34 W/m² | - |
| 1777500488 | 16.67° C | 76% | 1011.4 hPa | 0 mm | - | 40 W/m² | - |
| 1777500183 | 16.67° C | 77% | 1011.5 hPa | 0 mm | - | 45 W/m² | - |
| 1777499881 | 16.67° C | 76% | 1011.4 hPa | 0 mm | - | 48 W/m² | - |
| 1777499576 | 16.67° C | 77% | 1011.3 hPa | 0 mm | - | 45 W/m² | - |
| 1777499274 | 16.11° C | 75% | 1011.1 hPa | 0 mm | - | 67 W/m² | - |
| 1777498667 | 16.11° C | 76% | 1011.2 hPa | 0 mm | - | 50 W/m² | - |
| 1777498363 | 16.67° C | 74% | 1010.7 hPa | 0 mm | - | 56 W/m² | - |
| 1777498061 | 16.67° C | 75% | 1010.5 hPa | 0 mm | - | 87 W/m² | - |
| 1777497758 | 16.67° C | 74% | 1010.8 hPa | 0 mm | - | 122 W/m² | - |
| 1777497455 | 16.67° C | 74% | 1010.8 hPa | 0 mm | - | 131 W/m² | - |
| 1777497151 | 16.67° C | 75% | 1010.7 hPa | 0 mm | - | 114 W/m² | - |
| 1777496848 | 16.67° C | 74% | 1010.9 hPa | 0 mm | - | 86 W/m² | - |
| 1777496545 | 16.67° C | 75% | 1010.4 hPa | 0 mm | - | 163 W/m² | - |
| 1777496241 | 16.67° C | 75% | 1010.7 hPa | 0 mm | - | 94 W/m² | - |
| 1777495633 | 17.22° C | 74% | 1011.1 hPa | 0 mm | - | 104 W/m² | - |
* Rain latest hour (hover to see other rain measurements)
** Current wind speed in m/s (hover to see current wind gust speed)